createdAt,value
2018-09-17T00:00:29.201Z,13.10
2018-09-17T00:05:32.465Z,13.00
2018-09-17T00:10:35.506Z,12.90
2018-09-17T00:15:39.078Z,12.80
2018-09-17T00:20:43.067Z,12.70
2018-09-17T00:25:46.124Z,12.50
2018-09-17T00:30:49.314Z,12.40
2018-09-17T00:35:52.395Z,12.20
2018-09-17T00:40:55.657Z,12.20
2018-09-17T00:45:58.721Z,12.10
2018-09-17T00:51:03.499Z,12.10
2018-09-17T00:56:06.808Z,12.00
2018-09-17T01:01:10.025Z,12.10
2018-09-17T01:06:13.132Z,12.10
2018-09-17T01:11:16.552Z,12.00
2018-09-17T01:16:19.796Z,11.90
2018-09-17T01:21:23.059Z,11.80
2018-09-17T01:26:26.165Z,11.90
2018-09-17T01:31:29.675Z,11.70
2018-09-17T01:36:32.837Z,11.70
2018-09-17T01:41:35.953Z,11.60
2018-09-17T01:46:39.431Z,11.40
2018-09-17T01:51:42.568Z,11.40
2018-09-17T01:56:45.675Z,11.40
2018-09-17T02:01:49.027Z,11.30
2018-09-17T02:06:52.163Z,11.20
2018-09-17T02:11:55.209Z,11.10
2018-09-17T02:16:58.371Z,11.10
2018-09-17T02:22:05.050Z,11.10
2018-09-17T02:27:08.309Z,11.20
2018-09-17T02:32:11.429Z,11.10
2018-09-17T02:37:14.493Z,11.20
2018-09-17T02:42:17.769Z,11.10
2018-09-17T02:47:21.005Z,11.10
2018-09-17T02:52:24.233Z,11.00
2018-09-17T02:57:27.320Z,11.00
2018-09-17T03:02:30.680Z,11.00
2018-09-17T03:07:33.860Z,10.90
2018-09-17T03:12:37.533Z,10.70
2018-09-17T03:17:40.964Z,10.60
2018-09-17T03:22:44.036Z,10.60
2018-09-17T03:27:47.145Z,10.60
2018-09-17T03:32:50.248Z,10.60
2018-09-17T03:37:53.519Z,10.60
2018-09-17T03:42:56.643Z,10.60
2018-09-17T03:47:59.811Z,10.30
2018-09-17T03:53:04.131Z,10.20
2018-09-17T03:58:07.218Z,10.20
2018-09-17T04:03:10.572Z,10.20
2018-09-17T04:08:13.968Z,10.10
2018-09-17T04:13:17.347Z,10.20
2018-09-17T04:18:20.431Z,10.00
2018-09-17T04:23:28.915Z,10.00
2018-09-17T04:28:32.945Z,10.00
2018-09-17T04:33:38.555Z,9.90
2018-09-17T04:38:42.172Z,9.90
2018-09-17T04:43:45.738Z,9.90
2018-09-17T04:48:48.891Z,10.10
2018-09-17T04:53:52.003Z,10.20
2018-09-17T04:58:55.267Z,10.20
2018-09-17T05:03:58.581Z,10.30
2018-09-17T05:09:04.547Z,10.30
2018-09-17T05:14:07.914Z,10.30
2018-09-17T05:19:11.122Z,10.40
2018-09-17T05:24:14.253Z,10.40
2018-09-17T05:29:17.358Z,10.60
2018-09-17T05:34:20.449Z,11.20
2018-09-17T05:39:23.554Z,11.90
2018-09-17T05:44:26.736Z,12.70
2018-09-17T05:49:29.812Z,12.80
2018-09-17T05:54:32.835Z,13.70
2018-09-17T05:59:36.398Z,14.50
2018-09-17T06:04:40.488Z,15.40
2018-09-17T06:09:43.676Z,16.40
2018-09-17T06:14:46.743Z,17.00
2018-09-17T06:19:49.720Z,16.70
2018-09-17T06:30:38.761Z,17.40
2018-09-17T06:35:41.949Z,18.30
2018-09-17T06:40:44.940Z,18.90
2018-09-17T06:45:48.117Z,19.50
2018-09-17T06:50:51.095Z,20.10
2018-09-17T06:55:54.260Z,20.70
2018-09-17T07:00:57.302Z,21.00
2018-09-17T07:06:00.276Z,21.60
2018-09-17T07:11:05.117Z,21.30
2018-09-17T07:16:08.417Z,22.10
2018-09-17T07:21:11.386Z,22.70
2018-09-17T07:26:14.841Z,22.70
2018-09-17T07:31:17.803Z,22.20
2018-09-17T07:36:20.831Z,21.60
2018-09-17T07:41:23.980Z,21.60
2018-09-17T07:46:27.755Z,21.80
2018-09-17T07:51:30.756Z,21.40
2018-09-17T07:56:33.977Z,21.80
2018-09-17T08:01:37.173Z,22.40
2018-09-17T08:06:40.181Z,22.80
2018-09-17T08:11:43.735Z,22.60
2018-09-17T08:16:46.735Z,22.30
2018-09-17T08:21:49.799Z,22.30
2018-09-17T08:26:52.744Z,22.30
2018-09-17T08:31:55.736Z,22.00
2018-09-17T08:36:58.980Z,22.30
2018-09-17T08:42:02.717Z,22.60
2018-09-17T08:47:05.781Z,22.90
2018-09-17T08:52:08.813Z,22.70
2018-09-17T08:57:17.599Z,22.80
2018-09-17T09:03:27.231Z,22.50
2018-09-17T09:08:30.204Z,22.60
2018-09-17T09:13:33.268Z,22.20
2018-09-17T09:18:36.272Z,22.20
2018-09-17T09:23:39.354Z,23.00
2018-09-17T09:28:42.347Z,23.40
2018-09-17T09:33:45.335Z,23.10
2018-09-17T09:38:48.337Z,22.70
2018-09-17T09:43:51.618Z,22.40
2018-09-17T09:48:54.583Z,22.50
2018-09-17T09:53:57.772Z,22.40
2018-09-17T09:59:02.689Z,22.30
2018-09-17T10:04:11.504Z,22.60
2018-09-17T10:09:20.208Z,22.60
2018-09-17T10:14:28.895Z,23.00
2018-09-17T10:19:32.112Z,23.20
2018-09-17T10:24:35.556Z,23.50
2018-09-17T10:29:38.627Z,23.60
2018-09-17T10:34:41.912Z,23.50
2018-09-17T10:39:44.867Z,23.60
2018-09-17T10:44:48.140Z,23.70
2018-09-17T10:49:51.142Z,24.10
2018-09-17T10:54:54.164Z,24.00
2018-09-17T10:59:57.194Z,24.10
2018-09-17T11:05:00.153Z,24.00
2018-09-17T11:10:05.615Z,24.10
2018-09-17T11:15:08.636Z,24.10
2018-09-17T11:20:11.613Z,24.40
2018-09-17T11:25:14.687Z,24.40
2018-09-17T11:30:17.754Z,24.50
2018-09-17T11:35:20.741Z,24.90
2018-09-17T11:40:23.932Z,25.00
2018-09-17T11:45:26.927Z,25.00
2018-09-17T11:50:30.233Z,25.30
2018-09-17T11:55:33.370Z,25.10
2018-09-17T12:00:42.059Z,25.40
2018-09-17T12:05:50.842Z,25.80
2018-09-17T12:10:53.844Z,25.80
2018-09-17T12:15:56.969Z,26.00
2018-09-17T12:21:00.313Z,26.00
2018-09-17T12:26:03.856Z,25.90
2018-09-17T12:31:07.122Z,26.30
2018-09-17T12:36:10.201Z,26.40
2018-09-17T12:41:13.227Z,26.70
2018-09-17T12:46:16.287Z,26.70
2018-09-17T12:51:19.435Z,26.80
2018-09-17T12:56:22.604Z,26.80
2018-09-17T13:01:25.605Z,26.70
2018-09-17T13:06:28.616Z,26.70
2018-09-17T13:11:31.692Z,26.50
2018-09-17T13:16:37.183Z,26.50
2018-09-17T13:21:40.180Z,26.60
2018-09-17T13:26:43.224Z,26.60
2018-09-17T13:31:46.237Z,26.80
2018-09-17T13:36:49.747Z,26.70
2018-09-17T13:41:52.871Z,26.90
2018-09-17T13:46:55.851Z,26.90
2018-09-17T13:51:58.944Z,26.90
2018-09-17T13:57:03.649Z,27.00
2018-09-17T14:02:06.867Z,27.00
2018-09-17T14:07:10.303Z,26.90
2018-09-17T14:12:13.572Z,26.60
2018-09-17T14:17:16.639Z,26.40
2018-09-17T14:22:19.830Z,26.40
2018-09-17T14:27:23.158Z,26.60
2018-09-17T14:32:31.891Z,26.70
2018-09-17T14:37:35.135Z,27.00
2018-09-17T14:42:38.537Z,27.10
2018-09-17T14:47:41.746Z,27.10
2018-09-17T14:52:44.969Z,27.20
2018-09-17T14:57:48.168Z,27.30
2018-09-17T15:02:51.503Z,27.20
2018-09-17T15:07:54.903Z,27.20
2018-09-17T15:12:58.255Z,27.20
2018-09-17T15:18:04.217Z,27.00
2018-09-17T15:23:07.469Z,27.10
2018-09-17T15:28:10.720Z,27.00
2018-09-17T15:33:14.122Z,26.90
2018-09-17T15:38:17.409Z,26.90
2018-09-17T15:43:20.541Z,26.70
2018-09-17T15:48:23.814Z,26.60
2018-09-17T15:53:27.082Z,26.50
2018-09-17T15:58:30.500Z,26.40
2018-09-17T16:03:33.666Z,26.30
2018-09-17T16:08:36.880Z,26.30
2018-09-17T16:13:40.044Z,26.20
2018-09-17T16:18:43.287Z,26.10
2018-09-17T16:23:46.426Z,26.00
2018-09-17T16:28:49.806Z,25.80
2018-09-17T16:33:53.021Z,25.70
2018-09-17T16:38:56.200Z,25.70
2018-09-17T16:43:59.476Z,25.60
2018-09-17T16:49:03.600Z,25.40
2018-09-17T16:54:06.792Z,25.20
2018-09-17T17:04:19.156Z,24.80
2018-09-17T17:09:22.191Z,24.50
2018-09-17T17:14:25.190Z,24.10
2018-09-17T17:19:28.294Z,23.70
2018-09-17T17:24:31.289Z,23.50
2018-09-17T17:29:34.363Z,23.30
2018-09-17T17:34:37.598Z,23.00
2018-09-17T17:39:40.690Z,22.80
2018-09-17T17:44:43.667Z,22.40
2018-09-17T17:49:46.738Z,21.90
2018-09-17T17:54:50.703Z,21.30
2018-09-17T17:59:53.768Z,21.30
2018-09-17T18:04:56.828Z,21.00
2018-09-17T18:09:59.955Z,20.90
2018-09-17T18:15:05.361Z,20.70
2018-09-17T18:20:08.589Z,20.50
2018-09-17T18:25:11.645Z,20.40
2018-09-17T18:30:14.680Z,20.30
2018-09-17T18:35:17.881Z,20.40
2018-09-17T18:40:20.959Z,20.40
2018-09-17T18:45:24.051Z,20.20
2018-09-17T18:50:27.047Z,20.00
2018-09-17T18:55:30.211Z,19.70
2018-09-17T19:00:33.243Z,19.60
2018-09-17T19:05:36.764Z,19.30
2018-09-17T19:10:39.812Z,19.00
2018-09-17T19:15:51.686Z,18.90
2018-09-17T19:20:55.140Z,18.60
2018-09-17T19:25:57.975Z,18.40
2018-09-17T19:31:01.124Z,18.30
2018-09-17T19:36:04.864Z,18.20
2018-09-17T19:41:08.181Z,18.10
2018-09-17T19:46:18.842Z,18.10
2018-09-17T19:51:27.417Z,17.90
2018-09-17T19:56:30.562Z,17.80
2018-09-17T20:01:33.827Z,17.80
2018-09-17T20:06:36.931Z,17.70
2018-09-17T20:11:40.188Z,17.60
2018-09-17T20:16:43.323Z,17.50
2018-09-17T20:21:46.493Z,17.40
2018-09-17T20:26:50.168Z,17.40
2018-09-17T20:31:53.436Z,17.40
2018-09-17T20:36:56.664Z,17.20
2018-09-17T20:41:59.923Z,17.00
2018-09-17T20:47:04.970Z,17.00
2018-09-17T20:52:08.066Z,16.90
2018-09-17T20:57:11.055Z,16.80
2018-09-17T21:02:14.067Z,16.70
2018-09-17T21:07:17.139Z,16.70
2018-09-17T21:12:20.168Z,16.70
2018-09-17T21:17:23.197Z,16.70
2018-09-17T21:22:26.264Z,16.60
2018-09-17T21:27:29.244Z,16.50
2018-09-17T21:32:32.771Z,16.30
2018-09-17T21:37:35.950Z,16.20
2018-09-17T21:42:38.923Z,15.90
2018-09-17T21:47:41.959Z,15.60
2018-09-17T21:52:44.971Z,15.30
2018-09-17T21:57:47.957Z,15.30
2018-09-17T22:02:51.050Z,15.40
2018-09-17T22:07:54.034Z,15.40
2018-09-17T22:12:57.082Z,15.40
2018-09-17T22:18:00.160Z,15.70
2018-09-17T22:23:04.804Z,15.90
2018-09-17T22:28:08.123Z,15.70
2018-09-17T22:33:11.078Z,15.60
2018-09-17T22:38:14.079Z,15.80
2018-09-17T22:43:17.054Z,16.00
2018-09-17T22:48:20.060Z,15.90
2018-09-17T22:53:23.220Z,15.70
2018-09-17T22:58:26.325Z,15.60
2018-09-17T23:03:29.330Z,15.50
2018-09-17T23:08:32.326Z,15.40
2018-09-17T23:13:35.510Z,15.80
2018-09-17T23:18:38.470Z,15.70
2018-09-17T23:23:41.431Z,15.50
2018-09-17T23:28:44.419Z,15.60
2018-09-17T23:33:47.422Z,15.60
2018-09-17T23:38:50.396Z,15.50
2018-09-17T23:43:53.364Z,15.30
2018-09-17T23:48:56.343Z,15.30
2018-09-17T23:53:59.472Z,15.40
2018-09-17T23:59:04.448Z,15.30
